This is the latest recevied weather packets stored in our database for station/object KC0OOO-WX. If no packets are shown the sender has not sent any weather packets the latest 10 day(s).
| Time | Temp. | Humidity | Pressure | Rain* | Wind** | Luminosity | Snow |
|---|---|---|---|---|---|---|---|
| 1777863417 | 11.11° C | 35% | 1018.3 hPa | 0 mm | - | - | - |
| 1777862817 | 11.67° C | 34% | 1018.3 hPa | 0 mm | - | - | - |
| 1777862216 | 11.67° C | 33% | 1018.3 hPa | 0 mm | - | - | - |
| 1777861586 | 12.22° C | 33% | 1017.9 hPa | 0 mm | - | - | - |
| 1777860986 | 12.78° C | 30% | 1017.9 hPa | 0 mm | - | - | - |
| 1777860386 | 13.89° C | 28% | 1017.9 hPa | 0 mm | - | - | - |
| 1777859786 | 15° C | 26% | 1017.9 hPa | 0 mm | - | - | - |
| 1777859186 | 16.11° C | 25% | 1017.9 hPa | 0 mm | - | - | - |
| 1777858586 | 16.67° C | 24% | 1017.9 hPa | 0 mm | - | - | - |
| 1777857986 | 17.22° C | 23% | 1017.9 hPa | 0 mm | - | - | - |
| 1777857386 | 17.78° C | 21% | 1017.9 hPa | 0 mm | - | - | - |
| 1777856786 | 17.78° C | 21% | 1018.3 hPa | 0 mm | - | - | - |
| 1777856156 | 18.33° C | 21% | 1018.3 hPa | 0 mm | - | - | - |
| 1777855556 | 18.89° C | 20% | 1018.3 hPa | 0 mm | - | - | - |
| 1777854956 | 18.89° C | 20% | 1018.3 hPa | 0 mm | - | - | - |
| 1777854326 | 18.89° C | 20% | 1018.6 hPa | 0 mm | - | - | - |
| 1777853696 | 18.33° C | 23% | 1018.6 hPa | 0 mm | - | - | - |
| 1777853096 | 17.78° C | 21% | 1018.6 hPa | 0 mm | - | - | - |
| 1777852496 | 17.22° C | 23% | 1018.6 hPa | 0 mm | - | - | - |
| 1777851896 | 17.22° C | 23% | 1018.6 hPa | 0 mm | - | - | - |
| 1777851295 | 17.78° C | 21% | 1018.6 hPa | 0 mm | - | - | - |
| 1777850666 | 18.33° C | 22% | 1019 hPa | 0 mm | - | - | - |
| 1777850066 | 18.33° C | 21% | 1019 hPa | 0 mm | - | - | - |
| 1777849465 | 18.33° C | 22% | 1019 hPa | 0 mm | - | - | - |
| 1777848865 | 18.89° C | 22% | 1019 hPa | 0 mm | - | - | - |
* Rain latest hour (hover to see other rain measurements)
** Current wind speed in m/s (hover to see current wind gust speed)